sensor_id;sensor_type;location;lat;lon;timestamp;pressure;altitude;pressure_sealevel;temperature;humidity
17521;BME280;8878;-33.370;-70.552;2023-04-29T00:01:09;92094.66;;;18.67;55.78
17521;BME280;8878;-33.370;-70.552;2023-04-29T00:03:38;92081.59;;;18.83;55.23
17521;BME280;8878;-33.370;-70.552;2023-04-29T00:06:08;92079.84;;;18.78;55.20
17521;BME280;8878;-33.370;-70.552;2023-04-29T00:08:38;92087.25;;;18.64;55.32
17521;BME280;8878;-33.370;-70.552;2023-04-29T00:11:08;92097.13;;;18.55;55.68
17521;BME280;8878;-33.370;-70.552;2023-04-29T00:13:38;92109.41;;;18.47;55.86
17521;BME280;8878;-33.370;-70.552;2023-04-29T00:16:09;92116.31;;;18.57;55.85
17521;BME280;8878;-33.370;-70.552;2023-04-29T00:18:39;92107.53;;;18.65;55.54
17521;BME280;8878;-33.370;-70.552;2023-04-29T00:21:08;92106.75;;;18.64;55.66
17521;BME280;8878;-33.370;-70.552;2023-04-29T00:23:38;92114.41;;;18.49;56.25
17521;BME280;8878;-33.370;-70.552;2023-04-29T00:26:08;92120.56;;;18.58;55.84
17521;BME280;8878;-33.370;-70.552;2023-04-29T00:28:37;92119.63;;;18.62;55.88
17521;BME280;8878;-33.370;-70.552;2023-04-29T00:31:08;92127.31;;;18.64;55.96
17521;BME280;8878;-33.370;-70.552;2023-04-29T00:33:38;92128.41;;;18.54;56.05
17521;BME280;8878;-33.370;-70.552;2023-04-29T00:36:07;92125.91;;;18.66;55.71
17521;BME280;8878;-33.370;-70.552;2023-04-29T00:38:39;92133.63;;;18.68;55.11
17521;BME280;8878;-33.370;-70.552;2023-04-29T00:41:08;92124.50;;;18.69;55.79
17521;BME280;8878;-33.370;-70.552;2023-04-29T00:43:38;92121.97;;;18.64;56.48
17521;BME280;8878;-33.370;-70.552;2023-04-29T00:46:09;92121.19;;;18.46;56.71
17521;BME280;8878;-33.370;-70.552;2023-04-29T00:48:39;92114.72;;;18.38;57.00
17521;BME280;8878;-33.370;-70.552;2023-04-29T00:51:09;92118.22;;;18.56;56.59
17521;BME280;8878;-33.370;-70.552;2023-04-29T00:53:39;92116.31;;;18.65;56.33
17521;BME280;8878;-33.370;-70.552;2023-04-29T00:56:09;92122.78;;;18.73;56.25
17521;BME280;8878;-33.370;-70.552;2023-04-29T00:58:41;92121.81;;;18.77;55.78
17521;BME280;8878;-33.370;-70.552;2023-04-29T01:01:18;92114.88;;;18.76;55.54
17521;BME280;8878;-33.370;-70.552;2023-04-29T01:03:49;92115.84;;;18.81;55.38
17521;BME280;8878;-33.370;-70.552;2023-04-29T01:06:28;92118.03;;;18.78;55.53
17521;BME280;8878;-33.370;-70.552;2023-04-29T01:09:26;92111.78;;;18.74;55.51
17521;BME280;8878;-33.370;-70.552;2023-04-29T01:12:07;92107.84;;;18.63;56.10
17521;BME280;8878;-33.370;-70.552;2023-04-29T01:14:40;92102.66;;;18.75;55.63
17521;BME280;8878;-33.370;-70.552;2023-04-29T01:17:18;92097.31;;;18.75;55.58
17521;BME280;8878;-33.370;-70.552;2023-04-29T01:19:53;92106.75;;;18.64;55.92
17521;BME280;8878;-33.370;-70.552;2023-04-29T01:22:23;92117.41;;;18.47;56.16
17521;BME280;8878;-33.370;-70.552;2023-04-29T01:24:55;92115.72;;;18.60;56.14
17521;BME280;8878;-33.370;-70.552;2023-04-29T01:27:29;92122.28;;;18.45;56.04
17521;BME280;8878;-33.370;-70.552;2023-04-29T01:30:03;92135.00;;;18.48;56.14
17521;BME280;8878;-33.370;-70.552;2023-04-29T01:32:45;92133.16;;;18.57;55.81
17521;BME280;8878;-33.370;-70.552;2023-04-29T01:35:26;92125.28;;;18.69;55.35
17521;BME280;8878;-33.370;-70.552;2023-04-29T01:38:03;92123.38;;;18.78;55.33
17521;BME280;8878;-33.370;-70.552;2023-04-29T01:40:46;92123.06;;;18.80;54.82
17521;BME280;8878;-33.370;-70.552;2023-04-29T01:43:23;92117.56;;;18.76;55.32
17521;BME280;8878;-33.370;-70.552;2023-04-29T01:45:54;92110.16;;;18.91;55.03
17521;BME280;8878;-33.370;-70.552;2023-04-29T01:48:25;92099.03;;;18.89;54.65
17521;BME280;8878;-33.370;-70.552;2023-04-29T01:50:55;92079.66;;;18.83;55.36
17521;BME280;8878;-33.370;-70.552;2023-04-29T01:53:24;92091.31;;;18.78;55.37
17521;BME280;8878;-33.370;-70.552;2023-04-29T01:55:55;92098.06;;;18.85;55.12
17521;BME280;8878;-33.370;-70.552;2023-04-29T01:58:24;92099.47;;;18.91;55.06
17521;BME280;8878;-33.370;-70.552;2023-04-29T02:00:54;92119.44;;;19.02;54.77
17521;BME280;8878;-33.370;-70.552;2023-04-29T02:03:23;92123.19;;;19.01;54.51
17521;BME280;8878;-33.370;-70.552;2023-04-29T02:05:54;92114.84;;;19.11;54.51
17521;BME280;8878;-33.370;-70.552;2023-04-29T02:08:23;92101.00;;;19.09;53.95
17521;BME280;8878;-33.370;-70.552;2023-04-29T02:10:56;92094.72;;;19.05;54.50
17521;BME280;8878;-33.370;-70.552;2023-04-29T02:13:26;92101.94;;;19.13;53.92
17521;BME280;8878;-33.370;-70.552;2023-04-29T02:15:55;92101.00;;;19.09;53.99
17521;BME280;8878;-33.370;-70.552;2023-04-29T02:18:25;92103.88;;;19.04;53.54
17521;BME280;8878;-33.370;-70.552;2023-04-29T02:21:00;92110.44;;;19.06;53.81
17521;BME280;8878;-33.370;-70.552;2023-04-29T02:23:29;92115.50;;;18.99;53.99
17521;BME280;8878;-33.370;-70.552;2023-04-29T02:26:00;92111.41;;;18.93;54.23
17521;BME280;8878;-33.370;-70.552;2023-04-29T02:28:31;92109.50;;;19.11;53.96
17521;BME280;8878;-33.370;-70.552;2023-04-29T02:31:01;92120.31;;;19.32;54.01
17521;BME280;8878;-33.370;-70.552;2023-04-29T02:33:30;92128.38;;;19.14;54.06
17521;BME280;8878;-33.370;-70.552;2023-04-29T02:36:00;92119.34;;;19.28;54.25
17521;BME280;8878;-33.370;-70.552;2023-04-29T02:38:29;92116.50;;;19.33;54.40
17521;BME280;8878;-33.370;-70.552;2023-04-29T02:41:01;92108.16;;;19.34;54.21
17521;BME280;8878;-33.370;-70.552;2023-04-29T02:43:30;92109.66;;;19.14;54.74
17521;BME280;8878;-33.370;-70.552;2023-04-29T02:45:59;92094.88;;;19.17;54.74
17521;BME280;8878;-33.370;-70.552;2023-04-29T02:48:29;92098.66;;;19.07;54.89
17521;BME280;8878;-33.370;-70.552;2023-04-29T02:50:58;92101.16;;;19.12;54.52
17521;BME280;8878;-33.370;-70.552;2023-04-29T02:53:27;92099.91;;;19.10;54.32
17521;BME280;8878;-33.370;-70.552;2023-04-29T02:55:59;92093.91;;;19.13;54.39
17521;BME280;8878;-33.370;-70.552;2023-04-29T02:58:28;92094.59;;;18.93;54.98
17521;BME280;8878;-33.370;-70.552;2023-04-29T03:00:57;92095.34;;;19.10;55.11
17521;BME280;8878;-33.370;-70.552;2023-04-29T03:03:27;92087.16;;;19.15;54.75
17521;BME280;8878;-33.370;-70.552;2023-04-29T03:05:56;92087.34;;;19.02;54.95
17521;BME280;8878;-33.370;-70.552;2023-04-29T03:08:26;92082.44;;;19.12;54.99
17521;BME280;8878;-33.370;-70.552;2023-04-29T03:10:55;92072.22;;;19.14;54.76
17521;BME280;8878;-33.370;-70.552;2023-04-29T03:13:26;92075.34;;;19.25;54.58
17521;BME280;8878;-33.370;-70.552;2023-04-29T03:15:55;92079.91;;;19.16;54.46
17521;BME280;8878;-33.370;-70.552;2023-04-29T03:18:26;92085.56;;;19.23;54.94
17521;BME280;8878;-33.370;-70.552;2023-04-29T03:20:55;92083.00;;;19.35;54.39
17521;BME280;8878;-33.370;-70.552;2023-04-29T03:23:25;92091.19;;;19.30;54.42
17521;BME280;8878;-33.370;-70.552;2023-04-29T03:25:54;92083.28;;;19.42;54.39
17521;BME280;8878;-33.370;-70.552;2023-04-29T03:28:26;92077.06;;;19.21;54.92
17521;BME280;8878;-33.370;-70.552;2023-04-29T03:30:55;92072.19;;;19.23;54.63
17521;BME280;8878;-33.370;-70.552;2023-04-29T03:33:26;92067.31;;;19.25;54.93
17521;BME280;8878;-33.370;-70.552;2023-04-29T03:35:55;92061.88;;;19.42;54.00
17521;BME280;8878;-33.370;-70.552;2023-04-29T03:38:25;92070.22;;;19.49;53.86
17521;BME280;8878;-33.370;-70.552;2023-04-29T03:40:55;92063.84;;;19.25;54.11
17521;BME280;8878;-33.370;-70.552;2023-04-29T03:43:26;92070.09;;;19.37;53.92
17521;BME280;8878;-33.370;-70.552;2023-04-29T03:45:55;92060.97;;;19.38;53.63
17521;BME280;8878;-33.370;-70.552;2023-04-29T03:48:25;92073.06;;;19.44;53.60
17521;BME280;8878;-33.370;-70.552;2023-04-29T03:50:54;92067.06;;;19.47;53.39
17521;BME280;8878;-33.370;-70.552;2023-04-29T03:53:24;92058.53;;;19.16;54.20
17521;BME280;8878;-33.370;-70.552;2023-04-29T03:55:53;92052.13;;;19.00;53.99
17521;BME280;8878;-33.370;-70.552;2023-04-29T03:58:23;92049.09;;;19.10;54.08
17521;BME280;8878;-33.370;-70.552;2023-04-29T04:00:54;92056.03;;;19.11;54.59
17521;BME280;8878;-33.370;-70.552;2023-04-29T04:03:24;92061.72;;;19.01;54.04
17521;BME280;8878;-33.370;-70.552;2023-04-29T04:05:54;92059.63;;;19.15;54.35
17521;BME280;8878;-33.370;-70.552;2023-04-29T04:08:23;92062.78;;;19.08;54.09
17521;BME280;8878;-33.370;-70.552;2023-04-29T04:10:53;92049.16;;;19.39;54.11
17521;BME280;8878;-33.370;-70.552;2023-04-29T04:13:28;92056.75;;;19.29;54.78
17521;BME280;8878;-33.370;-70.552;2023-04-29T04:16:00;92059.41;;;19.29;54.27
17521;BME280;8878;-33.370;-70.552;2023-04-29T04:18:30;92041.13;;;19.39;53.71
17521;BME280;8878;-33.370;-70.552;2023-04-29T04:21:05;92040.00;;;19.40;54.23
17521;BME280;8878;-33.370;-70.552;2023-04-29T04:23:35;92035.00;;;19.39;54.62
17521;BME280;8878;-33.370;-70.552;2023-04-29T04:26:08;92040.31;;;19.47;53.93
17521;BME280;8878;-33.370;-70.552;2023-04-29T04:28:38;92030.09;;;19.49;53.55
17521;BME280;8878;-33.370;-70.552;2023-04-29T04:31:09;92026.94;;;19.47;53.69
17521;BME280;8878;-33.370;-70.552;2023-04-29T04:33:40;92033.84;;;19.48;52.71
17521;BME280;8878;-33.370;-70.552;2023-04-29T04:36:10;92046.41;;;19.57;52.82
17521;BME280;8878;-33.370;-70.552;2023-04-29T04:38:39;92048.81;;;19.49;52.85
17521;BME280;8878;-33.370;-70.552;2023-04-29T04:41:08;92051.22;;;19.72;47.67
17521;BME280;8878;-33.370;-70.552;2023-04-29T04:43:38;92047.59;;;19.38;50.02
17521;BME280;8878;-33.370;-70.552;2023-04-29T04:46:12;92048.56;;;18.78;50.93
17521;BME280;8878;-33.370;-70.552;2023-04-29T04:48:42;92042.44;;;18.52;52.09
17521;BME280;8878;-33.370;-70.552;2023-04-29T04:51:12;92048.25;;;18.20;53.51
17521;BME280;8878;-33.370;-70.552;2023-04-29T04:53:42;92048.88;;;18.34;53.51
17521;BME280;8878;-33.370;-70.552;2023-04-29T04:56:11;92054.25;;;18.68;52.48
17521;BME280;8878;-33.370;-70.552;2023-04-29T05:01:53;92047.78;;;18.52;52.71
17521;BME280;8878;-33.370;-70.552;2023-04-29T05:04:23;92053.00;;;18.57;53.05
17521;BME280;8878;-33.370;-70.552;2023-04-29T05:06:52;92045.28;;;18.21;53.90
17521;BME280;8878;-33.370;-70.552;2023-04-29T05:09:23;92057.53;;;17.96;54.94
17521;BME280;8878;-33.370;-70.552;2023-04-29T05:11:52;92064.09;;;17.90;55.25
17521;BME280;8878;-33.370;-70.552;2023-04-29T05:14:22;92063.00;;;17.91;55.15
17521;BME280;8878;-33.370;-70.552;2023-04-29T05:16:56;92063.97;;;18.13;54.97
17521;BME280;8878;-33.370;-70.552;2023-04-29T05:19:26;92058.94;;;18.37;54.15
17521;BME280;8878;-33.370;-70.552;2023-04-29T05:21:56;92056.75;;;18.22;54.40
17521;BME280;8878;-33.370;-70.552;2023-04-29T05:24:26;92058.47;;;18.52;53.95
17521;BME280;8878;-33.370;-70.552;2023-04-29T05:26:56;92059.91;;;18.58;53.97
17521;BME280;8878;-33.370;-70.552;2023-04-29T05:29:25;92064.28;;;18.37;54.43
17521;BME280;8878;-33.370;-70.552;2023-04-29T05:31:56;92057.34;;;17.84;55.91
17521;BME280;8878;-33.370;-70.552;2023-04-29T05:34:26;92071.03;;;17.83;56.46
17521;BME280;8878;-33.370;-70.552;2023-04-29T05:36:56;92075.84;;;17.72;56.96
17521;BME280;8878;-33.370;-70.552;2023-04-29T05:39:25;92067.53;;;17.74;57.10
17521;BME280;8878;-33.370;-70.552;2023-04-29T05:41:55;92072.56;;;17.84;56.73
17521;BME280;8878;-33.370;-70.552;2023-04-29T05:44:25;92067.41;;;17.87;56.73
17521;BME280;8878;-33.370;-70.552;2023-04-29T05:46:56;92067.41;;;18.05;56.55
17521;BME280;8878;-33.370;-70.552;2023-04-29T05:49:27;92081.28;;;17.58;57.39
17521;BME280;8878;-33.370;-70.552;2023-04-29T05:51:56;92084.81;;;17.85;56.88
17521;BME280;8878;-33.370;-70.552;2023-04-29T05:54:29;92077.13;;;17.83;56.83
17521;BME280;8878;-33.370;-70.552;2023-04-29T05:56:59;92084.78;;;17.68;57.22
17521;BME280;8878;-33.370;-70.552;2023-04-29T05:59:29;92096.31;;;17.94;56.63
17521;BME280;8878;-33.370;-70.552;2023-04-29T06:02:01;92092.97;;;17.80;56.94
17521;BME280;8878;-33.370;-70.552;2023-04-29T06:04:30;92080.25;;;17.85;56.99
17521;BME280;8878;-33.370;-70.552;2023-04-29T06:07:00;92080.00;;;18.30;56.28
17521;BME280;8878;-33.370;-70.552;2023-04-29T06:09:31;92086.44;;;18.20;55.99
17521;BME280;8878;-33.370;-70.552;2023-04-29T06:12:01;92072.56;;;17.75;57.32
17521;BME280;8878;-33.370;-70.552;2023-04-29T06:14:31;92085.78;;;17.97;56.96
17521;BME280;8878;-33.370;-70.552;2023-04-29T06:17:02;92083.41;;;17.87;57.02
17521;BME280;8878;-33.370;-70.552;2023-04-29T06:19:34;92074.97;;;18.03;57.07
17521;BME280;8878;-33.370;-70.552;2023-04-29T06:22:03;92082.84;;;18.16;57.10
17521;BME280;8878;-33.370;-70.552;2023-04-29T06:24:33;92081.41;;;18.36;56.37
17521;BME280;8878;-33.370;-70.552;2023-04-29T06:27:02;92084.72;;;18.50;56.59
17521;BME280;8878;-33.370;-70.552;2023-04-29T06:29:32;92077.19;;;18.52;56.59
17521;BME280;8878;-33.370;-70.552;2023-04-29T06:32:03;92080.66;;;18.61;56.38
17521;BME280;8878;-33.370;-70.552;2023-04-29T06:34:33;92078.91;;;18.65;55.64
17521;BME280;8878;-33.370;-70.552;2023-04-29T06:37:03;92080.66;;;18.61;55.70
17521;BME280;8878;-33.370;-70.552;2023-04-29T06:39:32;92084.44;;;18.60;56.08
17521;BME280;8878;-33.370;-70.552;2023-04-29T06:42:02;92078.44;;;18.63;56.09
17521;BME280;8878;-33.370;-70.552;2023-04-29T06:44:32;92082.38;;;18.74;55.58
17521;BME280;8878;-33.370;-70.552;2023-04-29T06:47:04;92075.94;;;18.67;56.04
17521;BME280;8878;-33.370;-70.552;2023-04-29T06:49:33;92077.81;;;18.75;55.84
17521;BME280;8878;-33.370;-70.552;2023-04-29T06:52:03;92060.84;;;18.62;56.17
17521;BME280;8878;-33.370;-70.552;2023-04-29T06:54:32;92052.19;;;18.74;55.91
17521;BME280;8878;-33.370;-70.552;2023-04-29T06:57:02;92060.22;;;18.65;56.22
17521;BME280;8878;-33.370;-70.552;2023-04-29T06:59:31;92070.25;;;18.51;56.21
17521;BME280;8878;-33.370;-70.552;2023-04-29T07:02:03;92058.94;;;18.28;55.99
17521;BME280;8878;-33.370;-70.552;2023-04-29T07:04:32;92058.31;;;18.23;55.88
17521;BME280;8878;-33.370;-70.552;2023-04-29T07:07:03;92055.97;;;18.30;56.10
17521;BME280;8878;-33.370;-70.552;2023-04-29T07:09:34;92066.00;;;18.42;56.32
17521;BME280;8878;-33.370;-70.552;2023-04-29T07:12:03;92055.03;;;18.26;56.76
17521;BME280;8878;-33.370;-70.552;2023-04-29T07:14:33;92059.88;;;18.41;56.03
17521;BME280;8878;-33.370;-70.552;2023-04-29T07:17:05;92054.72;;;18.62;55.73
17521;BME280;8878;-33.370;-70.552;2023-04-29T07:19:35;92060.22;;;18.65;55.92
17521;BME280;8878;-33.370;-70.552;2023-04-29T07:22:04;92059.44;;;18.65;55.59
17521;BME280;8878;-33.370;-70.552;2023-04-29T07:24:34;92059.75;;;18.63;55.75
17521;BME280;8878;-33.370;-70.552;2023-04-29T07:27:03;92052.81;;;18.71;55.48
17521;BME280;8878;-33.370;-70.552;2023-04-29T07:29:33;92047.47;;;18.80;55.54
17521;BME280;8878;-33.370;-70.552;2023-04-29T07:32:04;92038.81;;;18.83;55.49
17521;BME280;8878;-33.370;-70.552;2023-04-29T07:34:34;92038.81;;;18.83;55.51
17521;BME280;8878;-33.370;-70.552;2023-04-29T07:37:04;92038.22;;;18.68;56.34
17521;BME280;8878;-33.370;-70.552;2023-04-29T07:39:33;92041.81;;;18.64;56.09
17521;BME280;8878;-33.370;-70.552;2023-04-29T07:42:03;92035.25;;;18.61;56.29
17521;BME280;8878;-33.370;-70.552;2023-04-29T07:44:32;92024.69;;;18.56;56.05
17521;BME280;8878;-33.370;-70.552;2023-04-29T07:47:02;92019.03;;;18.66;56.13
17521;BME280;8878;-33.370;-70.552;2023-04-29T07:49:33;92011.94;;;18.62;56.03
17521;BME280;8878;-33.370;-70.552;2023-04-29T07:52:05;92008.66;;;18.56;55.92
17521;BME280;8878;-33.370;-70.552;2023-04-29T07:54:36;92016.69;;;18.56;56.20
17521;BME280;8878;-33.370;-70.552;2023-04-29T07:57:05;92024.84;;;18.68;56.25
17521;BME280;8878;-33.370;-70.552;2023-04-29T07:59:35;92015.41;;;18.62;56.06
17521;BME280;8878;-33.370;-70.552;2023-04-29T08:02:05;92010.25;;;18.57;56.13
17521;BME280;8878;-33.370;-70.552;2023-04-29T08:04:38;92004.41;;;18.55;56.62
17521;BME280;8878;-33.370;-70.552;2023-04-29T08:07:08;92007.91;;;18.47;56.76
17521;BME280;8878;-33.370;-70.552;2023-04-29T08:09:37;92008.81;;;18.51;57.16
17521;BME280;8878;-33.370;-70.552;2023-04-29T08:12:07;92002.38;;;18.52;56.90
17521;BME280;8878;-33.370;-70.552;2023-04-29T08:14:38;92005.03;;;18.52;56.68
17521;BME280;8878;-33.370;-70.552;2023-04-29T08:17:07;92004.72;;;18.54;56.19
17521;BME280;8878;-33.370;-70.552;2023-04-29T08:19:39;92016.53;;;18.53;56.09
17521;BME280;8878;-33.370;-70.552;2023-04-29T08:22:08;92013.38;;;18.42;55.78
17521;BME280;8878;-33.370;-70.552;2023-04-29T08:24:40;92020.91;;;18.49;55.88
17521;BME280;8878;-33.370;-70.552;2023-04-29T08:27:11;92018.88;;;18.28;55.37
17521;BME280;8878;-33.370;-70.552;2023-04-29T08:29:41;92007.44;;;18.11;55.81
17521;BME280;8878;-33.370;-70.552;2023-04-29T08:32:11;92010.59;;;17.95;56.18
17521;BME280;8878;-33.370;-70.552;2023-04-29T08:34:43;92016.84;;;17.99;56.28
17521;BME280;8878;-33.370;-70.552;2023-04-29T08:37:13;92016.06;;;17.82;55.87
17521;BME280;8878;-33.370;-70.552;2023-04-29T08:39:43;92010.72;;;17.99;55.89
17521;BME280;8878;-33.370;-70.552;2023-04-29T08:42:14;92020.31;;;18.09;55.45
17521;BME280;8878;-33.370;-70.552;2023-04-29T08:44:45;92004.47;;;18.04;55.16
17521;BME280;8878;-33.370;-70.552;2023-04-29T08:47:15;92008.53;;;18.01;55.16
17521;BME280;8878;-33.370;-70.552;2023-04-29T08:49:48;92007.28;;;17.90;55.19
17521;BME280;8878;-33.370;-70.552;2023-04-29T08:52:17;92007.59;;;17.97;55.47
17521;BME280;8878;-33.370;-70.552;2023-04-29T08:54:47;92010.72;;;17.99;55.54
17521;BME280;8878;-33.370;-70.552;2023-04-29T08:57:17;92016.22;;;18.20;55.35
17521;BME280;8878;-33.370;-70.552;2023-04-29T08:59:47;92018.91;;;18.03;55.00
17521;BME280;8878;-33.370;-70.552;2023-04-29T09:02:17;92019.53;;;18.17;54.96
17521;BME280;8878;-33.370;-70.552;2023-04-29T09:04:54;92034.44;;;17.75;55.36
17521;BME280;8878;-33.370;-70.552;2023-04-29T09:07:25;92032.69;;;17.62;55.99
17521;BME280;8878;-33.370;-70.552;2023-04-29T09:09:56;92027.63;;;17.60;56.04
17521;BME280;8878;-33.370;-70.552;2023-04-29T09:12:26;92045.91;;;17.36;56.71
17521;BME280;8878;-33.370;-70.552;2023-04-29T09:14:58;92040.63;;;17.53;56.68
17521;BME280;8878;-33.370;-70.552;2023-04-29T09:17:41;92041.53;;;17.48;56.59
17521;BME280;8878;-33.370;-70.552;2023-04-29T09:20:28;92035.38;;;17.79;55.66
17521;BME280;8878;-33.370;-70.552;2023-04-29T09:23:00;92036.16;;;18.05;55.24
17521;BME280;8878;-33.370;-70.552;2023-04-29T09:25:30;92036.19;;;18.31;55.10
17521;BME280;8878;-33.370;-70.552;2023-04-29T09:28:14;92037.75;;;18.32;54.76
17521;BME280;8878;-33.370;-70.552;2023-04-29T09:30:47;92044.50;;;18.38;54.55
17521;BME280;8878;-33.370;-70.552;2023-04-29T09:33:16;92039.31;;;18.07;54.55
17521;BME280;8878;-33.370;-70.552;2023-04-29T09:35:48;92028.16;;;18.39;54.72
17521;BME280;8878;-33.370;-70.552;2023-04-29T09:38:18;92035.22;;;18.53;54.76
17521;BME280;8878;-33.370;-70.552;2023-04-29T09:40:47;92034.59;;;18.64;55.17
17521;BME280;8878;-33.370;-70.552;2023-04-29T09:43:18;92035.53;;;18.43;55.60
17521;BME280;8878;-33.370;-70.552;2023-04-29T09:45:48;92034.00;;;18.33;55.72
17521;BME280;8878;-33.370;-70.552;2023-04-29T09:48:17;92045.59;;;18.46;56.22
17521;BME280;8878;-33.370;-70.552;2023-04-29T09:51:00;92058.00;;;18.42;56.37
17521;BME280;8878;-33.370;-70.552;2023-04-29T09:53:30;92050.47;;;18.52;55.92
17521;BME280;8878;-33.370;-70.552;2023-04-29T09:56:04;92056.75;;;18.56;55.54
17521;BME280;8878;-33.370;-70.552;2023-04-29T09:58:34;92045.28;;;18.47;55.81
17521;BME280;8878;-33.370;-70.552;2023-04-29T10:01:06;92046.06;;;18.39;56.25
17521;BME280;8878;-33.370;-70.552;2023-04-29T10:03:36;92047.00;;;18.43;56.38
17521;BME280;8878;-33.370;-70.552;2023-04-29T10:06:08;92050.94;;;18.63;55.80
17521;BME280;8878;-33.370;-70.552;2023-04-29T10:08:38;92046.38;;;18.63;56.16
17521;BME280;8878;-33.370;-70.552;2023-04-29T10:11:10;92037.44;;;18.59;56.13
17521;BME280;8878;-33.370;-70.552;2023-04-29T10:13:42;92051.41;;;18.56;56.15
17521;BME280;8878;-33.370;-70.552;2023-04-29T10:16:26;92067.13;;;18.66;55.58
17521;BME280;8878;-33.370;-70.552;2023-04-29T10:18:59;92082.69;;;18.73;54.66
17521;BME280;8878;-33.370;-70.552;2023-04-29T10:21:34;92079.41;;;18.59;55.58
17521;BME280;8878;-33.370;-70.552;2023-04-29T10:24:05;92087.25;;;18.38;57.04
17521;BME280;8878;-33.370;-70.552;2023-04-29T10:26:37;92092.88;;;18.02;58.42
17521;BME280;8878;-33.370;-70.552;2023-04-29T10:29:07;92087.59;;;17.63;59.47
17521;BME280;8878;-33.370;-70.552;2023-04-29T10:31:39;92092.81;;;17.85;59.41
17521;BME280;8878;-33.370;-70.552;2023-04-29T10:34:09;92085.78;;;17.89;59.19
17521;BME280;8878;-33.370;-70.552;2023-04-29T10:36:41;92074.59;;;17.78;59.32
17521;BME280;8878;-33.370;-70.552;2023-04-29T10:39:18;92077.97;;;17.53;58.98
17521;BME280;8878;-33.370;-70.552;2023-04-29T10:41:51;92111.66;;;17.80;59.20
17521;BME280;8878;-33.370;-70.552;2023-04-29T10:44:21;92104.72;;;17.62;59.20
17521;BME280;8878;-33.370;-70.552;2023-04-29T10:47:20;92094.91;;;17.57;60.31
17521;BME280;8878;-33.370;-70.552;2023-04-29T10:50:04;92071.00;;;17.74;60.50
17521;BME280;8878;-33.370;-70.552;2023-04-29T10:52:53;92090.31;;;17.80;60.18
17521;BME280;8878;-33.370;-70.552;2023-04-29T10:55:24;92091.97;;;17.28;60.33
17521;BME280;8878;-33.370;-70.552;2023-04-29T10:57:54;92098.00;;;17.42;60.46
17521;BME280;8878;-33.370;-70.552;2023-04-29T11:00:26;92094.81;;;17.71;60.50
17521;BME280;8878;-33.370;-70.552;2023-04-29T11:02:56;92089.38;;;17.84;60.44
17521;BME280;8878;-33.370;-70.552;2023-04-29T11:05:33;92089.53;;;17.88;61.42
17521;BME280;8878;-33.370;-70.552;2023-04-29T11:08:14;92101.00;;;17.88;61.24
17521;BME280;8878;-33.370;-70.552;2023-04-29T11:10:52;92111.63;;;17.71;61.40
17521;BME280;8878;-33.370;-70.552;2023-04-29T11:13:22;92088.00;;;17.56;62.38
17521;BME280;8878;-33.370;-70.552;2023-04-29T11:15:53;92077.81;;;17.58;62.51
17521;BME280;8878;-33.370;-70.552;2023-04-29T11:18:23;92084.13;;;17.62;62.53
17521;BME280;8878;-33.370;-70.552;2023-04-29T11:21:14;92084.56;;;17.55;62.61
17521;BME280;8878;-33.370;-70.552;2023-04-29T11:23:45;92119.34;;;17.42;63.61
17521;BME280;8878;-33.370;-70.552;2023-04-29T11:26:16;92115.53;;;17.26;64.90
17521;BME280;8878;-33.370;-70.552;2023-04-29T11:28:47;92097.00;;;16.98;66.65
17521;BME280;8878;-33.370;-70.552;2023-04-29T11:31:19;92111.72;;;17.27;66.96
17521;BME280;8878;-33.370;-70.552;2023-04-29T11:33:50;92121.75;;;17.21;67.66
17521;BME280;8878;-33.370;-70.552;2023-04-29T11:36:19;92116.72;;;17.19;67.66
17521;BME280;8878;-33.370;-70.552;2023-04-29T11:38:50;92117.78;;;17.10;68.37
17521;BME280;8878;-33.370;-70.552;2023-04-29T11:41:20;92124.44;;;16.99;68.07
17521;BME280;8878;-33.370;-70.552;2023-04-29T11:43:55;92115.78;;;17.15;68.40
17521;BME280;8878;-33.370;-70.552;2023-04-29T11:46:29;92130.56;;;16.99;69.13
17521;BME280;8878;-33.370;-70.552;2023-04-29T11:48:59;92132.88;;;16.92;68.96
17521;BME280;8878;-33.370;-70.552;2023-04-29T11:51:28;92130.09;;;16.97;69.14
17521;BME280;8878;-33.370;-70.552;2023-04-29T11:54:01;92123.97;;;17.19;69.07
17521;BME280;8878;-33.370;-70.552;2023-04-29T11:56:31;92136.53;;;17.27;68.40
17521;BME280;8878;-33.370;-70.552;2023-04-29T11:59:00;92135.78;;;17.35;68.38
17521;BME280;8878;-33.370;-70.552;2023-04-29T12:01:34;92143.19;;;17.38;68.68
17521;BME280;8878;-33.370;-70.552;2023-04-29T12:04:04;92132.72;;;17.50;68.52
17521;BME280;8878;-33.370;-70.552;2023-04-29T12:06:34;92118.63;;;17.58;67.78
17521;BME280;8878;-33.370;-70.552;2023-04-29T12:09:05;92118.06;;;17.70;67.64
17521;BME280;8878;-33.370;-70.552;2023-04-29T12:11:35;92116.97;;;17.71;67.38
17521;BME280;8878;-33.370;-70.552;2023-04-29T12:14:05;92141.16;;;17.75;67.39
17521;BME280;8878;-33.370;-70.552;2023-04-29T12:16:35;92166.56;;;17.72;67.66
17521;BME280;8878;-33.370;-70.552;2023-04-29T12:19:05;92138.75;;;17.34;69.43
17521;BME280;8878;-33.370;-70.552;2023-04-29T12:21:37;92149.16;;;17.44;70.43
17521;BME280;8878;-33.370;-70.552;2023-04-29T12:24:20;92168.41;;;17.63;70.20
17521;BME280;8878;-33.370;-70.552;2023-04-29T12:26:49;92183.03;;;17.66;69.69
17521;BME280;8878;-33.370;-70.552;2023-04-29T12:29:21;92163.47;;;17.56;69.85
17521;BME280;8878;-33.370;-70.552;2023-04-29T12:31:51;92173.44;;;17.65;69.53
17521;BME280;8878;-33.370;-70.552;2023-04-29T12:34:25;92185.00;;;17.60;68.77
17521;BME280;8878;-33.370;-70.552;2023-04-29T12:36:55;92186.25;;;17.54;69.33
17521;BME280;8878;-33.370;-70.552;2023-04-29T12:39:28;92184.47;;;17.49;70.27
17521;BME280;8878;-33.370;-70.552;2023-04-29T12:41:59;92186.63;;;17.61;69.74
17521;BME280;8878;-33.370;-70.552;2023-04-29T12:44:35;92195.88;;;17.64;70.16
17521;BME280;8878;-33.370;-70.552;2023-04-29T12:47:08;92194.38;;;17.80;70.00
17521;BME280;8878;-33.370;-70.552;2023-04-29T12:49:41;92205.59;;;17.99;69.86
17521;BME280;8878;-33.370;-70.552;2023-04-29T12:52:11;92214.72;;;18.07;69.56
17521;BME280;8878;-33.370;-70.552;2023-04-29T12:54:43;92216.41;;;17.94;69.78
17521;BME280;8878;-33.370;-70.552;2023-04-29T12:57:12;92209.34;;;17.89;69.66
17521;BME280;8878;-33.370;-70.552;2023-04-29T12:59:42;92224.38;;;17.85;69.36
17521;BME280;8878;-33.370;-70.552;2023-04-29T13:02:11;92231.19;;;17.69;69.14
17521;BME280;8878;-33.370;-70.552;2023-04-29T13:04:41;92224.34;;;17.01;71.87